WetterOnline ( https://www.wetteronline.de )

Wetter aktuell Berlin

Aktuelles Wetter: Berlin-Tegel (37m)

6-stündlich | Neueste Meldungen
Ortszeit Temperatur Wetter
Fr, 16.04. 14:00 10.3° C wolkig
Fr, 16.04. 8:00 4.3° C wolkig
Fr, 16.04. 2:00 3.4° C bedeckt
Do, 15.04. 20:00 4.9° C leichter Schneeregen
Do, 15.04. 14:00 6.7° C leichter Regen
Do, 15.04. 8:00 1.8° C wolkig
Do, 15.04. 2:00 2.4° C leicht bewölkt
Mi, 14.04. 20:00 7.0° C bewölkt
Ortszeit Temperatur Wetter
Fr, 16.04. 17:10 11.4° C -
Fr, 16.04. 17:00 11.3° C wolkig
Fr, 16.04. 16:50 11.3° C -
Fr, 16.04. 16:40 11.1° C -
Fr, 16.04. 16:30 11.0° C leicht bewölkt
Fr, 16.04. 16:20 11.0° C -
Fr, 16.04. 16:00 11.1° C leicht bewölkt
Fr, 16.04. 15:30 10.7° C leicht bewölkt
Fr, 16.04. 15:00 11.4° C leicht bewölkt
Fr, 16.04. 14:30 10.9° C wolkig
Fr, 16.04. 14:00 10.3° C wolkig
Ortszeit Relative Feuchte Sichtweite
Fr, 16.04. 14:00 42% 40 km
Fr, 16.04. 8:00 71% 40 km
Fr, 16.04. 2:00 80% 40 km
Do, 15.04. 20:00 52% 30 km
Do, 15.04. 14:00 48% 50 km
Do, 15.04. 8:00 76% 50 km
Do, 15.04. 2:00 66% 60 km
Mi, 14.04. 20:00 49% 50 km
Ortszeit Relative Feuchte Sichtweite
Fr, 16.04. 17:10 39% -
Fr, 16.04. 17:00 39% 40 km
Fr, 16.04. 16:50 39% -
Fr, 16.04. 16:40 40% -
Fr, 16.04. 16:30 43% 40 km
Fr, 16.04. 16:20 43% -
Fr, 16.04. 16:00 44% 40 km
Fr, 16.04. 15:30 42% 40 km
Fr, 16.04. 15:00 45% 40 km
Fr, 16.04. 14:30 41% 40 km
Fr, 16.04. 14:00 42% 40 km
Ortszeit Niederschlagsmenge Niederschlagsart
Fr, 16.04. 14:00 0.0 l/m2 in 6 Std. -
Fr, 16.04. 8:00 0.2 l/m2 in 12 Std. -
Fr, 16.04. 2:00 0.2 l/m2 in 6 Std. Schnee, Regen
Do, 15.04. 20:00 0.1 l/m2 in 12 Std. Regen
Do, 15.04. 14:00 0.1 l/m2 in 6 Std. -
Do, 15.04. 8:00 0.0 l/m2 in 12 Std. -
Do, 15.04. 2:00 0.0 l/m2 in 6 Std. -
Mi, 14.04. 20:00 0.1 l/m2 in 12 Std. -
Ortszeit Niederschlagsmenge Niederschlagsart
Fr, 16.04. 17:10 keine Meldung -
Fr, 16.04. 17:00 0.0 l/m2 in 1 Std. -
Fr, 16.04. 16:50 keine Meldung -
Fr, 16.04. 16:40 keine Meldung -
Fr, 16.04. 16:30 0.1 l/m2 in 1 Std. -
Fr, 16.04. 16:20 keine Meldung -
Fr, 16.04. 16:00 0.0 l/m2 in 1 Std. -
Fr, 16.04. 15:30 0.0 l/m2 in 1 Std. -
Fr, 16.04. 15:00 0.0 l/m2 in 1 Std. -
Fr, 16.04. 14:30 0.0 l/m2 in 1 Std. -
Fr, 16.04. 14:00 0.0 l/m2 in 1 Std. -
Ortszeit Stärke Spitze Richtung
km/h Bft. km/h Grad Sektor
Fr, 16.04. 14:00 14 3 32 10° N
Fr, 16.04. 8:00 13 3 24 360° N
Fr, 16.04. 2:00 9 2 33 330° NW
Do, 15.04. 20:00 22 4 44 360° N
Do, 15.04. 14:00 22 4 48 360° N
Do, 15.04. 8:00 11 2 17 340° N
Do, 15.04. 2:00 7 2 18 350° N
Mi, 14.04. 20:00 13 3 30 360° N
Ortszeit Stärke Spitze Richtung
km/h Bft. km/h Grad Sektor
Fr, 16.04. 17:10 22 4 - 340° N
Fr, 16.04. 17:00 15 3 31 360° N
Fr, 16.04. 16:50 15 3 - 360° N
Fr, 16.04. 16:40 14 3 - 360° N
Fr, 16.04. 16:30 13 3 31 360° N
Fr, 16.04. 16:20 13 3 - 360° N
Fr, 16.04. 16:00 14 3 32 360° N
Fr, 16.04. 15:30 14 3 32 30° NO
Fr, 16.04. 15:00 14 3 32 350° N
Fr, 16.04. 14:30 11 2 33 360° N
Fr, 16.04. 14:00 14 3 32 10° N
Ortszeit Untergrenze Bedeckung Gattung
total tief tief mittel hoch
Fr, 16.04. 14:00 1350 m 6/8 1/8 Cu Ac Ci
Fr, 16.04. 8:00 540 m 7/8 3/8 Cu Ac Ci
Fr, 16.04. 2:00 1500 m 8/8 7/8 Sc - -
Do, 15.04. 20:00 540 m 8/8 6/8 Sc Ns -
Do, 15.04. 14:00 1200 m 8/8 1/8 Cu As -
Do, 15.04. 8:00 3000 m 8/8 8/8 - As -
Do, 15.04. 2:00 7500 m 7/8 0/8 - - Ci
Mi, 14.04. 20:00 1200 m 7/8 5/8 Cu Ac -
Ortszeit Bedeckungsgrad in Achtel und Wolkenuntergrenze
Fr, 16.04. 17:10 -
Fr, 16.04. 17:00 1(1500m) 3(2100m) 5(7500m)
Fr, 16.04. 16:50 -
Fr, 16.04. 16:40 -
Fr, 16.04. 16:30 1(1350m) 5(7500m)
Fr, 16.04. 16:20 -
Fr, 16.04. 16:00 1(1350m) 3(3000m) 5(7500m)
Fr, 16.04. 15:30 1(1200m) 5(3000m) 5(7500m)
Fr, 16.04. 15:00 1(1200m) 5(3000m) 5(7500m)
Fr, 16.04. 14:30 1(1200m) 5(2700m) 5(7500m)
Fr, 16.04. 14:00 1(1350m) 5(2700m) 5(7500m)
Ortszeit Luftdruck NN (hPa) Tendenz (hPa in 3 Std.)
Fr, 16.04. 14:00 1024 - 0,7
Fr, 16.04. 8:00 1025 + 0,2
Fr, 16.04. 2:00 1025 - 1,6
Do, 15.04. 20:00 1027 + 0,8
Do, 15.04. 14:00 1028 - 0,3
Do, 15.04. 8:00 1028 + 0,4
Do, 15.04. 2:00 1028 + 0,2
Mi, 14.04. 20:00 1027 + 0,3
Ortszeit Luftdruck NN (hPa) Tendenz (hPa in 3 Std.)
Fr, 16.04. 17:10 1024 keine Meldung
Fr, 16.04. 17:00 1023 - 1,0
Fr, 16.04. 16:50 1023 keine Meldung
Fr, 16.04. 16:40 1023 keine Meldung
Fr, 16.04. 16:30 1024 - 0,9
Fr, 16.04. 16:20 1024 keine Meldung
Fr, 16.04. 16:00 1024 - 0,7
Fr, 16.04. 15:30 1024 - 1,1
Fr, 16.04. 15:00 1024 - 0,9
Fr, 16.04. 14:30 1024 - 0,8
Fr, 16.04. 14:00 1024 - 0,7
Ortszeit Schneehöhe (cm)
Fr, 16.04. 14:00 0
Fr, 16.04. 8:00 0
Fr, 16.04. 2:00 0
Do, 15.04. 20:00 0
Do, 15.04. 14:00 0
Do, 15.04. 8:00 0
Do, 15.04. 2:00 0
Mi, 14.04. 20:00 0
Ortszeit Schneehöhe (cm)
Fr, 16.04. 17:10 -
Fr, 16.04. 17:00 -
Fr, 16.04. 16:50 -
Fr, 16.04. 16:40 -
Fr, 16.04. 16:30 -
Fr, 16.04. 16:20 -
Fr, 16.04. 16:00 -
Fr, 16.04. 15:30 -
Fr, 16.04. 15:00 -
Fr, 16.04. 14:30 -
Fr, 16.04. 14:00 0
Link zu dieser Seite / Seite empfehlen

Das Wetter in ...